Time;durP1;ratioP1;P1;durP2;ratioP2;P2;SDS_P1;SDS_P2;PMS_P1;PMS_P2;Temp;Humidity;BMP_temperature;BMP_pressure;BME280_temperature;BME280_humidity;BME280_pressure;Samples;Min_cycle;Max_cycle;Signal;HPM_P1;HPM_P2
2021/05/06 00:02:05;;;;;;;10.95;0.60;;;;;;;2.03;52.55;100505.69;4981843;28;20395;-67
2021/05/06 00:34:18;;;;;;;10.13;0.82;;;;;;;2.13;51.97;100497.00;4996951;28;20568;-68
2021/05/06 00:36:44;;;;;;;2.63;0.60;;;;;;;1.81;53.03;100499.91;4989020;28;20498;-67
2021/05/06 00:39:13;;;;;;;9.98;0.47;;;;;;;1.59;53.74;100499.25;4990039;28;20034;-67
2021/05/06 00:42:02;;;;;;;12.48;0.85;;;;;;;1.38;54.15;100496.81;5002247;28;20544;-66
2021/05/06 00:55:40;;;;;;;6.47;0.40;;;;;;;1.54;53.75;100495.84;4985102;28;20614;-64
2021/05/06 00:58:27;;;;;;;7.60;0.85;;;;;;;1.86;52.79;100499.84;5002109;28;20029;-65
2021/05/06 01:06:17;;;;;;;6.10;0.63;;;;;;;1.69;53.25;100505.19;5003288;28;20108;-66
2021/05/06 01:08:47;;;;;;;11.85;1.13;;;;;;;1.85;52.64;100504.16;4988165;28;20030;-66
2021/05/06 01:11:22;;;;;;;7.22;0.98;;;;;;;1.50;53.46;100509.63;4969896;28;20334;-66
2021/05/06 01:13:49;;;;;;;12.13;1.35;;;;;;;1.67;53.21;100506.91;5001802;28;20025;-66
2021/05/06 01:16:14;;;;;;;1.73;0.38;;;;;;;1.48;53.50;100506.19;4988823;28;20061;-69
2021/05/06 01:18:40;;;;;;;12.05;0.82;;;;;;;2.20;51.73;100496.91;4989277;28;20030;-71
2021/05/06 01:21:06;;;;;;;9.27;0.75;;;;;;;1.83;52.65;100498.16;5005399;28;20030;-71
2021/05/06 01:23:33;;;;;;;4.30;0.60;;;;;;;1.75;52.99;100489.63;4972640;28;20434;-72
2021/05/06 01:26:05;;;;;;;11.23;0.80;;;;;;;1.87;52.45;100491.25;4965581;28;20041;-71
2021/05/06 01:28:37;;;;;;;5.15;0.73;;;;;;;1.92;52.28;100492.91;5001448;28;20030;-71
2021/05/06 01:31:08;;;;;;;5.22;0.70;;;;;;;1.84;52.32;100493.84;5001068;28;20220;-71
2021/05/06 01:33:42;;;;;;;3.47;0.50;;;;;;;1.68;52.98;100493.16;4987904;28;20034;-71
2021/05/06 01:47:08;;;;;;;6.15;0.40;;;;;;;1.93;53.62;100497.22;4986781;28;20026;-69
2021/05/06 02:00:29;;;;;;;10.43;0.75;;;;;;;0.94;56.27;100493.69;4988157;28;20030;-68
2021/05/06 02:03:04;;;;;;;7.75;0.52;;;;;;;1.02;56.22;100496.22;4986901;28;20108;-68
2021/05/06 02:05:34;;;;;;;5.60;0.30;;;;;;;1.41;54.74;100495.09;4999178;28;20494;-66
2021/05/06 02:08:02;;;;;;;4.68;0.68;;;;;;;1.12;55.21;100497.84;4987188;28;20368;-65
2021/05/06 02:10:33;;;;;;;6.88;0.50;;;;;;;0.88;55.52;100489.44;5002341;28;20053;-65
2021/05/06 02:13:01;;;;;;;3.63;0.45;;;;;;;1.00;55.39;100500.53;5002263;28;20296;-65
2021/05/06 02:15:35;;;;;;;4.57;0.25;;;;;;;1.51;53.96;100493.31;4987052;28;20026;-66
2021/05/06 02:18:03;;;;;;;15.25;1.67;;;;;;;1.45;54.06;100501.94;5002015;28;20034;-65
2021/05/06 02:20:28;;;;;;;7.82;0.45;;;;;;;1.07;55.09;100489.31;5003612;28;20081;-63
2021/05/06 02:22:54;;;;;;;3.80;0.47;;;;;;;0.96;55.45;100496.25;5002054;28;20033;-64
2021/05/06 02:25:20;;;;;;;7.32;0.38;;;;;;;0.73;55.46;100494.69;4997922;28;20040;-65
2021/05/06 02:27:48;;;;;;;5.75;0.25;;;;;;;0.74;56.07;100492.94;4986293;28;20577;-66
2021/05/06 02:30:14;;;;;;;3.90;0.13;;;;;;;1.30;54.38;100486.56;5001693;28;20449;-67
2021/05/06 02:32:40;;;;;;;4.32;0.35;;;;;;;1.36;54.27;100489.09;5002351;28;20629;-66
2021/05/06 02:35:06;;;;;;;5.65;0.40;;;;;;;1.18;54.87;100491.81;4987702;28;20029;-65
2021/05/06 02:37:32;;;;;;;3.13;0.40;;;;;;;1.82;52.75;100486.16;4984487;28;20029;-66
2021/05/06 02:39:58;;;;;;;7.65;1.30;;;;;;;1.43;54.33;100487.38;4994364;28;20025;-66
2021/05/06 02:42:24;;;;;;;3.42;0.28;;;;;;;1.40;54.67;100483.09;4988307;28;20583;-65
2021/05/06 02:44:49;;;;;;;1.13;0.30;;;;;;;0.89;55.97;100496.28;4997679;28;20106;-66
2021/05/06 02:47:15;;;;;;;8.63;0.47;;;;;;;1.30;54.83;100486.56;5003821;28;20053;-68
2021/05/06 02:49:46;;;;;;;2.78;0.30;;;;;;;1.44;54.31;100466.75;4986486;28;20038;-67
2021/05/06 02:52:26;;;;;;;7.75;1.02;;;;;;;1.31;54.47;100459.97;5001233;28;20166;-69
2021/05/06 02:55:00;;;;;;;0.98;0.15;;;;;;;1.64;52.78;100476.00;4989813;28;20390;-67
2021/05/06 03:05:09;;;;;;;5.55;0.50;;;;;;;1.76;52.74;100475.91;5003557;28;20038;-70
2021/05/06 03:07:36;;;;;;;1.98;0.38;;;;;;;1.42;53.82;100481.38;4999896;28;20023;-68
2021/05/06 03:10:23;;;;;;;4.07;0.15;;;;;;;2.05;52.34;100477.34;4989295;28;20093;-69
2021/05/06 03:23:35;;;;;;;2.30;0.20;;;;;;;2.15;53.34;100496.97;4997068;28;20026;-72
2021/05/06 03:26:01;;;;;;;6.60;0.40;;;;;;;2.36;52.11;100498.47;5001400;28;20080;-69
2021/05/06 03:28:32;;;;;;;5.80;0.40;;;;;;;2.23;52.76;100487.44;5005350;28;20040;-70
2021/05/06 03:42:09;;;;;;;4.40;0.73;;;;;;;1.24;55.95;100481.50;4986208;28;20429;-71
2021/05/06 04:11:59;;;;;;;2.78;0.30;;;;;;;1.63;54.54;100492.34;5004231;28;20042;-65
2021/05/06 04:17:00;;;;;;;7.93;1.10;;;;;;;1.42;54.20;100483.09;5006994;28;20073;-69
2021/05/06 04:27:12;;;;;;;6.53;0.63;;;;;;;1.21;54.28;100481.50;4990830;28;20032;-69
2021/05/06 04:37:53;;;;;;;5.60;0.90;;;;;;;1.41;53.86;100489.94;5002169;28;20030;-71
2021/05/06 04:53:44;;;;;;;4.68;0.88;;;;;;;1.21;54.83;100491.78;5003090;28;20038;-72
2021/05/06 05:04:00;;;;;;;4.40;0.20;;;;;;;2.50;50.42;100475.91;4990186;28;20478;-73
2021/05/06 05:06:32;;;;;;;2.45;0.30;;;;;;;4.53;46.66;100471.66;5002496;28;20107;-74
2021/05/06 05:14:02;;;;;;;4.53;0.38;;;;;;;3.79;47.22;100478.28;5001771;28;20080;-69
2021/05/06 05:27:13;;;;;;;7.10;1.55;;;;;;;6.47;42.58;100478.94;4976177;28;20061;-69
2021/05/06 05:29:39;;;;;;;2.13;0.70;;;;;;;4.23;46.26;100479.19;4990421;28;20398;-68
2021/05/06 05:32:04;;;;;;;14.32;0.60;;;;;;;4.34;47.15;100484.13;5000853;28;20026;-68
2021/05/06 05:34:40;;;;;;;4.68;0.30;;;;;;;5.66;45.55;100478.56;4998631;28;20040;-67
2021/05/06 05:37:06;;;;;;;4.93;0.30;;;;;;;7.69;41.76;100475.09;4999342;28;20041;-67
2021/05/06 05:39:43;;;;;;;5.22;0.40;;;;;;;9.92;34.73;100471.75;5005079;28;20034;-69
2021/05/06 05:42:28;;;;;;;3.88;0.30;;;;;;;9.51;36.17;100476.94;4995048;28;20045;-68
2021/05/06 05:55:47;;;;;;;4.93;0.60;;;;;;;11.61;32.08;100479.50;5003493;28;20030;-66
2021/05/06 05:58:13;;;;;;;6.97;0.40;;;;;;;11.30;31.45;100486.28;5004157;28;20038;-67
2021/05/06 06:00:38;;;;;;;7.40;0.28;;;;;;;11.34;32.38;100482.59;5004231;28;20036;-66
2021/05/06 06:03:04;;;;;;;3.88;0.77;;;;;;;10.89;31.83;100480.44;4984775;28;20050;-69
2021/05/06 06:05:30;;;;;;;2.08;0.20;;;;;;;11.46;31.93;100482.00;5003238;28;20091;-69
2021/05/06 06:07:55;;;;;;;4.00;0.35;;;;;;;12.85;30.49;100480.84;5002221;28;20107;-72
2021/05/06 06:10:21;;;;;;;4.72;0.85;;;;;;;14.43;27.40;100475.94;5000358;28;20037;-67
2021/05/06 06:12:46;;;;;;;4.20;0.40;;;;;;;15.15;26.28;100476.59;4980209;28;20036;-70
2021/05/06 06:15:46;;;;;;;4.30;0.35;;;;;;;15.81;25.97;100468.72;5003510;28;20067;-72
2021/05/06 06:18:21;;;;;;;2.45;0.20;;;;;;;15.01;26.29;100471.38;5001304;28;20037;-71
2021/05/06 06:20:54;;;;;;;1.63;0.93;;;;;;;14.53;26.87;100473.59;4977969;28;20491;-66
2021/05/06 06:23:19;;;;;;;7.22;0.43;;;;;;;14.91;27.20;100479.03;4999640;28;20034;-66
2021/05/06 06:25:45;;;;;;;5.00;0.40;;;;;;;11.25;31.15;100490.88;4989694;28;20056;-67
2021/05/06 06:28:12;;;;;;;6.57;0.75;;;;;;;12.25;29.94;100483.22;5002134;28;20029;-67
2021/05/06 06:30:39;;;;;;;4.63;0.32;;;;;;;13.88;27.71;100476.69;5002591;28;20037;-66
2021/05/06 06:33:04;;;;;;;4.57;0.40;;;;;;;13.76;28.99;100474.78;4999733;28;20088;-66
2021/05/06 06:35:30;;;;;;;1.90;0.35;;;;;;;13.04;29.50;100479.78;5001127;28;20109;-66
2021/05/06 06:37:55;;;;;;;2.17;0.20;;;;;;;10.73;34.03;100486.38;4986302;28;20425;-67
2021/05/06 06:40:21;;;;;;;3.85;0.63;;;;;;;13.67;30.09;100481.41;5000724;28;20030;-66
2021/05/06 06:42:46;;;;;;;6.28;0.50;;;;;;;14.92;26.27;100485.13;4999119;28;20030;-66
2021/05/06 06:45:12;;;;;;;3.00;0.30;;;;;;;14.52;27.66;100492.91;4999190;28;20499;-65
2021/05/06 06:47:38;;;;;;;7.15;0.77;;;;;;;12.48;29.35;100484.59;4987957;28;20038;-66
2021/05/06 06:50:04;;;;;;;4.07;0.28;;;;;;;10.68;32.16;100495.31;5000477;28;20057;-66
2021/05/06 06:52:29;;;;;;;3.53;0.45;;;;;;;11.58;30.21;100484.91;5000574;28;20034;-67
2021/05/06 06:54:54;;;;;;;5.80;0.30;;;;;;;12.46;29.28;100484.66;4999107;28;20359;-66
2021/05/06 06:57:20;;;;;;;4.13;0.30;;;;;;;10.46;32.58;100485.88;5003025;28;20037;-67
2021/05/06 06:59:45;;;;;;;5.25;0.50;;;;;;;8.55;36.27;100517.16;5000241;28;20041;-66
2021/05/06 07:02:12;;;;;;;3.80;0.32;;;;;;;7.15;39.20;100518.44;4998035;28;20097;-67
2021/05/06 07:04:37;;;;;;;4.35;0.28;;;;;;;6.37;41.47;100516.41;4998218;28;20029;-66
2021/05/06 07:07:03;;;;;;;5.70;0.60;;;;;;;5.63;44.70;100525.28;5001348;28;20080;-66
2021/05/06 07:09:28;;;;;;;5.15;0.30;;;;;;;5.21;46.03;100522.81;4998075;28;20557;-68
2021/05/06 07:11:54;;;;;;;4.45;0.40;;;;;;;5.49;46.14;100517.84;4999358;28;20038;-66
2021/05/06 07:14:19;;;;;;;6.18;0.80;;;;;;;6.50;43.95;100515.19;5001814;28;20030;-67
2021/05/06 07:16:45;;;;;;;6.55;1.02;;;;;;;8.66;39.72;100503.72;4983097;28;20037;-67
2021/05/06 07:19:10;;;;;;;7.68;0.55;;;;;;;12.82;32.07;100506.38;4999429;28;20041;-66
2021/05/06 07:21:36;;;;;;;1.40;0.13;;;;;;;14.85;29.00;100502.25;4968041;28;20640;-67
2021/05/06 07:24:01;;;;;;;6.82;0.60;;;;;;;15.30;26.95;100506.34;4999403;28;20085;-67
2021/05/06 07:26:27;;;;;;;3.15;0.43;;;;;;;13.80;27.89;100500.78;5001076;28;20038;-69
2021/05/06 07:28:53;;;;;;;8.52;0.85;;;;;;;14.87;27.34;100497.75;5002028;28;20053;-67
2021/05/06 07:31:20;;;;;;;2.55;0.60;;;;;;;15.36;26.36;100500.69;5003798;28;20029;-68
2021/05/06 07:33:48;;;;;;;2.83;0.60;;;;;;;15.54;26.69;100493.34;5002058;28;20033;-68
2021/05/06 07:36:15;;;;;;;6.72;0.43;;;;;;;15.80;27.37;100501.28;5003639;28;20037;-66
2021/05/06 07:38:40;;;;;;;5.43;0.77;;;;;;;15.35;27.83;100493.75;5002916;28;20029;-68
2021/05/06 07:41:07;;;;;;;5.30;0.50;;;;;;;13.42;29.63;100482.84;4990940;28;20406;-67
2021/05/06 07:43:33;;;;;;;4.85;0.93;;;;;;;10.62;32.31;100494.69;4987815;28;20037;-67
2021/05/06 07:46:00;;;;;;;7.97;1.00;;;;;;;8.62;37.45;100501.31;5001103;28;20563;-68
2021/05/06 07:48:26;;;;;;;10.65;1.00;;;;;;;6.64;40.80;100519.13;5002423;28;20076;-69
2021/05/06 07:50:51;;;;;;;2.53;0.20;;;;;;;6.93;42.71;100526.03;4969912;28;20120;-68
2021/05/06 07:53:25;;;;;;;3.30;0.32;;;;;;;5.52;44.35;100543.69;4985265;28;22286;-69
2021/05/06 07:55:52;;;;;;;5.00;0.55;;;;;;;4.31;46.15;100528.19;4991405;28;20036;-68
2021/05/06 07:58:18;;;;;;;1.98;0.10;;;;;;;4.15;47.09;100536.22;5001198;28;20056;-69
2021/05/06 08:00:43;;;;;;;4.90;0.70;;;;;;;4.13;46.80;100537.13;4999832;28;20433;-68
2021/05/06 08:03:09;;;;;;;2.17;0.28;;;;;;;3.69;47.88;100538.75;5001039;28;20042;-68
2021/05/06 08:05:35;;;;;;;4.72;0.40;;;;;;;4.32;46.67;100530.75;4985635;28;20042;-69
2021/05/06 08:08:01;;;;;;;4.03;0.17;;;;;;;4.77;45.51;100532.44;4985824;28;20018;-67
2021/05/06 08:10:27;;;;;;;2.15;0.15;;;;;;;6.03;43.98;100529.44;5000949;28;20041;-70
2021/05/06 08:12:57;;;;;;;19.70;0.75;;;;;;;9.34;36.81;100517.63;4985615;28;20125;-69
2021/05/06 08:15:23;;;;;;;4.68;0.82;;;;;;;12.48;32.63;100518.69;5001649;28;20041;-69
2021/05/06 08:17:53;;;;;;;6.25;0.30;;;;;;;14.05;30.64;100515.06;4986012;28;20136;-69
2021/05/06 08:20:19;;;;;;;7.20;0.50;;;;;;;15.81;27.18;100516.13;4979329;28;20045;-69
2021/05/06 08:22:46;;;;;;;4.72;0.45;;;;;;;17.52;25.94;100522.56;4998300;28;20045;-67
2021/05/06 08:25:14;;;;;;;1.38;0.20;;;;;;;18.26;25.71;100520.44;5002929;28;20037;-69
2021/05/06 08:27:40;;;;;;;1.10;0.20;;;;;;;17.32;24.41;100519.56;4985625;28;20557;-68
2021/05/06 08:30:08;;;;;;;3.03;0.10;;;;;;;17.14;26.48;100524.41;4999994;28;20450;-69
2021/05/06 08:32:33;;;;;;;6.40;0.38;;;;;;;17.20;24.70;100517.81;5003490;28;20034;-68
2021/05/06 08:34:59;;;;;;;2.65;0.20;;;;;;;16.68;27.70;100517.16;5001623;28;20026;-67
2021/05/06 08:37:25;;;;;;;3.05;0.20;;;;;;;15.79;26.55;100528.56;5004365;28;20022;-67
2021/05/06 08:39:52;;;;;;;2.38;0.30;;;;;;;10.72;32.72;100549.16;5003828;28;20060;-68
2021/05/06 08:42:18;;;;;;;6.53;0.30;;;;;;;8.03;37.46;100552.88;5000324;28;20048;-66
2021/05/06 08:44:44;;;;;;;5.20;0.45;;;;;;;7.17;39.55;100554.78;5000663;28;20491;-68
2021/05/06 08:47:17;;;;;;;1.70;0.22;;;;;;;5.34;42.11;100562.28;4983643;28;20065;-66
2021/05/06 08:49:44;;;;;;;2.53;0.20;;;;;;;4.10;43.57;100581.19;4999594;28;20384;-68
2021/05/06 08:52:11;;;;;;;2.75;0.30;;;;;;;4.11;44.05;100578.53;4999406;28;20044;-66
2021/05/06 08:54:37;;;;;;;3.25;0.80;;;;;;;4.75;44.35;100571.28;5005140;28;20446;-67
2021/05/06 08:57:04;;;;;;;1.77;0.30;;;;;;;4.59;44.86;100573.34;4985881;28;20035;-68
2021/05/06 08:59:30;;;;;;;1.05;0.10;;;;;;;5.36;44.20;100573.47;5004778;28;20034;-67
2021/05/06 09:01:56;;;;;;;0.88;0.13;;;;;;;5.69;43.65;100569.22;5003250;28;20041;-68
2021/05/06 09:04:22;;;;;;;2.50;0.10;;;;;;;5.25;43.70;100571.94;5000164;28;20398;-66
2021/05/06 09:07:10;;;;;;;3.67;0.40;;;;;;;6.97;40.85;100569.22;5004106;28;20036;-68
2021/05/06 09:09:42;;;;;;;2.67;0.28;;;;;;;9.75;37.09;100559.41;4998257;28;20038;-67
2021/05/06 09:12:08;;;;;;;2.65;0.20;;;;;;;10.86;34.96;100554.66;5002206;28;20030;-68
2021/05/06 09:14:42;;;;;;;7.47;0.20;;;;;;;10.59;34.11;100552.34;5006252;28;20112;-66
2021/05/06 09:17:29;;;;;;;2.90;0.40;;;;;;;10.91;33.60;100552.66;4980433;28;20065;-66
2021/05/06 09:20:16;;;;;;;6.00;0.30;;;;;;;11.17;32.55;100554.06;4991217;28;20088;-67
2021/05/06 09:22:44;;;;;;;4.70;0.70;;;;;;;11.40;32.67;100555.56;4982048;28;20113;-67
2021/05/06 09:25:32;;;;;;;6.13;0.20;;;;;;;11.62;31.56;100555.34;5002340;28;20061;-65
2021/05/06 09:28:05;;;;;;;4.10;0.60;;;;;;;11.69;31.74;100545.44;5006280;28;20041;-67
2021/05/06 09:30:47;;;;;;;2.17;0.50;;;;;;;12.21;30.33;100540.16;5004927;28;20039;-66
2021/05/06 09:33:13;;;;;;;4.32;0.30;;;;;;;12.18;28.58;100542.09;5001802;28;20041;-66
2021/05/06 09:35:48;;;;;;;7.20;0.30;;;;;;;9.31;31.37;100542.97;5002906;28;20045;-66
2021/05/06 09:38:35;;;;;;;2.92;0.30;;;;;;;10.17;28.92;100545.50;5002710;28;20499;-66
2021/05/06 09:41:04;;;;;;;4.10;0.30;;;;;;;11.59;29.00;100534.56;5003657;28;20561;-67
2021/05/06 09:43:41;;;;;;;3.40;0.30;;;;;;;12.39;27.22;100543.59;5002656;28;20079;-67
2021/05/06 09:46:32;;;;;;;1.80;0.22;;;;;;;11.89;26.72;100541.84;5006002;28;20160;-65
2021/05/06 09:49:15;;;;;;;4.72;0.50;;;;;;;11.96;27.82;100553.69;5003342;28;20037;-66
2021/05/06 09:51:43;;;;;;;1.40;0.35;;;;;;;11.11;29.90;100554.34;5001033;28;20483;-65
2021/05/06 09:54:14;;;;;;;4.30;0.10;;;;;;;9.22;33.11;100575.47;5000657;28;20042;-66
2021/05/06 09:56:43;;;;;;;0.52;0.20;;;;;;;8.41;34.82;100583.69;4985993;28;20486;-66
2021/05/06 09:59:10;;;;;;;1.00;0.10;;;;;;;7.99;34.46;100586.88;5000672;28;20048;-66
2021/05/06 10:01:40;;;;;;;2.00;0.10;;;;;;;6.12;36.74;100594.06;5001009;28;20077;-66
2021/05/06 10:04:19;;;;;;;0.20;0.03;;;;;;;6.47;38.77;100587.97;4999653;28;20045;-67
2021/05/06 10:07:08;;;;;;;0.28;0.10;;;;;;;6.72;38.33;100589.03;4999714;28;20316;-65
2021/05/06 10:09:34;;;;;;;0.70;0.35;;;;;;;6.53;38.21;100586.09;5001630;28;20031;-66
2021/05/06 10:12:01;;;;;;;0.80;0.20;;;;;;;7.84;36.34;100578.66;5000458;28;20124;-66
2021/05/06 10:14:28;;;;;;;1.60;0.10;;;;;;;9.63;32.04;100575.56;5001868;28;20034;-68
2021/05/06 10:16:53;;;;;;;3.03;0.15;;;;;;;10.32;32.14;100567.47;5005087;28;20367;-66
2021/05/06 10:19:19;;;;;;;0.40;0.10;;;;;;;9.88;31.03;100567.63;5005397;28;20068;-65
2021/05/06 10:21:46;;;;;;;0.35;0.10;;;;;;;9.76;32.34;100565.47;5001338;28;20116;-65
2021/05/06 10:24:16;;;;;;;3.60;0.10;;;;;;;11.12;31.38;100565.66;5000521;28;20037;-66
2021/05/06 10:26:44;;;;;;;5.13;0.55;;;;;;;11.77;28.82;100566.84;5001679;28;20132;-65
2021/05/06 10:29:10;;;;;;;2.90;0.30;;;;;;;11.97;28.89;100565.84;4983595;28;20125;-65
2021/05/06 10:31:40;;;;;;;3.42;0.10;;;;;;;12.02;28.64;100558.63;4998729;28;20030;-66
2021/05/06 10:34:07;;;;;;;3.13;0.47;;;;;;;12.03;28.78;100559.47;5002379;28;20150;-65
2021/05/06 10:36:34;;;;;;;3.75;0.30;;;;;;;9.54;31.55;100560.28;5000458;28;20033;-65
2021/05/06 10:39:00;;;;;;;3.85;0.13;;;;;;;9.88;31.54;100556.31;5002350;28;20103;-65
2021/05/06 10:41:34;;;;;;;7.03;0.57;;;;;;;11.07;30.48;100552.78;5002599;28;20091;-65
2021/05/06 10:44:03;;;;;;;2.38;0.20;;;;;;;11.63;28.48;100550.97;5004071;28;20042;-65
2021/05/06 10:46:56;;;;;;;3.42;0.20;;;;;;;12.32;27.34;100555.34;5001607;28;20038;-65
2021/05/06 10:49:27;;;;;;;1.92;0.30;;;;;;;13.25;24.91;100549.44;5001494;28;20026;-68
2021/05/06 10:52:00;;;;;;;0.95;0.20;;;;;;;12.60;27.21;100554.72;4999622;28;20033;-65
2021/05/06 10:54:27;;;;;;;2.90;0.10;;;;;;;12.29;28.31;100561.59;4998769;28;20062;-65
2021/05/06 10:56:54;;;;;;;1.02;0.25;;;;;;;11.05;30.33;100558.09;5004169;28;20118;-65
2021/05/06 10:59:21;;;;;;;1.20;0.10;;;;;;;9.69;32.63;100564.88;5001710;28;20463;-64
2021/05/06 11:01:47;;;;;;;3.63;0.30;;;;;;;8.87;34.62;100571.59;5005430;28;20124;-66
2021/05/06 11:04:12;;;;;;;4.57;0.30;;;;;;;8.75;33.16;100575.53;4999863;28;20038;-65
2021/05/06 11:06:40;;;;;;;1.38;0.28;;;;;;;9.21;33.64;100565.97;4985133;28;20033;-65
2021/05/06 11:09:51;;;;;;;2.17;0.55;;;;;;;10.79;31.91;100554.06;5000973;28;20038;-65
2021/05/06 11:12:31;;;;;;;2.35;0.20;;;;;;;12.18;29.37;100558.69;4999718;28;20050;-65
2021/05/06 11:15:03;;;;;;;5.18;0.38;;;;;;;12.31;29.23;100547.53;4980928;28;20041;-66
2021/05/06 11:17:32;;;;;;;1.80;0.10;;;;;;;12.05;28.82;100550.59;4995215;28;20022;-65
2021/05/06 11:19:58;;;;;;;8.48;0.32;;;;;;;12.97;27.93;100550.13;4977749;28;20117;-66
2021/05/06 11:22:46;;;;;;;2.95;0.30;;;;;;;13.45;26.97;100548.31;4995955;28;20070;-66
2021/05/06 11:27:59;;;;;;;4.78;1.17;;;;;;;12.27;27.98;100546.88;4998156;28;20136;-66
2021/05/06 11:30:34;;;;;;;4.72;0.57;;;;;;;12.47;25.86;100538.81;4995615;28;20040;-66
2021/05/06 11:33:18;;;;;;;4.50;0.57;;;;;;;14.03;25.75;100546.72;5000226;28;20053;-65
2021/05/06 11:36:19;;;;;;;4.07;0.30;;;;;;;13.04;27.19;100538.34;4997593;28;20053;-66
2021/05/06 11:38:47;;;;;;;1.38;0.22;;;;;;;12.50;28.09;100527.31;4998306;28;20041;-67
2021/05/06 11:41:17;;;;;;;2.67;0.20;;;;;;;12.64;27.19;100530.00;4981627;28;20532;-66
2021/05/06 11:43:55;;;;;;;4.38;0.20;;;;;;;13.18;27.74;100528.84;4999584;28;20037;-66
2021/05/06 11:46:23;;;;;;;4.55;0.20;;;;;;;15.02;26.04;100525.72;4996966;28;20322;-66
2021/05/06 11:49:00;;;;;;;2.22;0.13;;;;;;;14.55;24.13;100529.56;4993958;28;20037;-66
2021/05/06 11:51:39;;;;;;;6.93;0.20;;;;;;;13.44;24.81;100528.22;4997758;28;20502;-66
2021/05/06 11:54:25;;;;;;;2.25;0.30;;;;;;;13.13;25.10;100537.00;4996312;28;20512;-65
2021/05/06 11:56:57;;;;;;;1.13;0.10;;;;;;;12.98;24.56;100530.84;4996829;28;20034;-66
2021/05/06 11:59:25;;;;;;;1.63;0.13;;;;;;;14.27;24.14;100522.50;4976019;28;20068;-66
2021/05/06 12:01:52;;;;;;;0.85;0.10;;;;;;;13.61;24.16;100531.69;4995001;28;20029;-66
2021/05/06 12:04:37;;;;;;;1.73;0.22;;;;;;;12.26;26.21;100535.53;4997114;28;20120;-66
2021/05/06 12:07:17;;;;;;;2.13;0.10;;;;;;;13.10;25.47;100532.78;4998177;28;20029;-66
2021/05/06 12:09:43;;;;;;;1.92;0.13;;;;;;;13.70;23.50;100516.25;4995033;28;20185;-65
2021/05/06 12:12:08;;;;;;;2.50;0.10;;;;;;;14.83;23.12;100515.50;4997661;28;20034;-66
2021/05/06 12:14:38;;;;;;;1.50;0.20;;;;;;;15.51;22.36;100512.00;4997942;28;20037;-65
2021/05/06 12:17:05;;;;;;;3.83;0.68;;;;;;;14.10;23.94;100502.50;5000560;28;20105;-63
2021/05/06 12:19:31;;;;;;;0.65;0.30;;;;;;;13.25;24.92;100527.56;5000680;28;20090;-65
2021/05/06 12:21:59;;;;;;;1.23;0.60;;;;;;;12.62;24.26;100531.03;4999417;28;20701;-66
2021/05/06 12:24:27;;;;;;;2.85;0.10;;;;;;;12.68;24.21;100521.06;4986245;28;20902;-64
2021/05/06 12:26:53;;;;;;;2.60;0.20;;;;;;;13.65;23.54;100517.44;4984523;28;20022;-65
2021/05/06 12:29:20;;;;;;;3.25;0.20;;;;;;;13.36;22.80;100517.34;5001808;28;20029;-66
2021/05/06 12:31:50;;;;;;;4.63;0.20;;;;;;;12.13;24.03;100524.00;5002789;28;20063;-65
2021/05/06 12:34:21;;;;;;;3.25;0.20;;;;;;;11.78;26.03;100521.44;4993234;28;20038;-65
2021/05/06 12:36:58;;;;;;;0.85;0.17;;;;;;;12.02;24.70;100515.84;5000377;28;20033;-66
2021/05/06 12:39:25;;;;;;;3.10;0.13;;;;;;;13.65;25.18;100514.81;4999264;28;20038;-66
2021/05/06 12:41:54;;;;;;;2.80;0.30;;;;;;;13.85;23.70;100506.63;4998640;28;20116;-63
2021/05/06 12:44:38;;;;;;;1.08;0.10;;;;;;;13.39;23.27;100511.91;4993475;28;20642;-64
2021/05/06 12:47:22;;;;;;;1.25;0.10;;;;;;;13.82;24.43;100514.66;4982184;28;20037;-63
2021/05/06 12:49:50;;;;;;;5.13;0.32;;;;;;;14.22;23.03;100507.00;4981022;28;20049;-64
2021/05/06 12:52:39;;;;;;;2.60;0.10;;;;;;;14.51;24.15;100512.28;4999852;28;20038;-63
2021/05/06 12:55:26;;;;;;;2.90;0.57;;;;;;;14.76;22.04;100512.41;5002113;28;20068;-63
2021/05/06 12:58:07;;;;;;;0.65;0.00;;;;;;;13.57;22.31;100509.19;4976001;28;20029;-64
2021/05/06 13:00:35;;;;;;;2.83;0.30;;;;;;;12.95;23.13;100507.38;4997931;28;20037;-64
2021/05/06 13:03:02;;;;;;;1.48;0.10;;;;;;;12.48;24.52;100521.28;4998041;28;20549;-65
2021/05/06 13:05:35;;;;;;;1.67;0.20;;;;;;;11.69;24.47;100514.00;4997376;28;20053;-64
2021/05/06 13:08:02;;;;;;;5.03;0.25;;;;;;;12.01;24.06;100508.94;4996646;28;20034;-65
2021/05/06 13:10:34;;;;;;;2.55;0.47;;;;;;;11.99;25.28;100508.16;4997501;28;20095;-63
2021/05/06 13:13:00;;;;;;;1.63;0.10;;;;;;;12.73;23.76;100509.50;4984002;28;20032;-64
2021/05/06 13:15:26;;;;;;;1.40;0.55;;;;;;;13.90;22.23;100501.94;4999042;28;20033;-62
2021/05/06 13:17:52;;;;;;;1.58;0.10;;;;;;;15.07;20.50;100494.66;4981618;28;20111;-63
2021/05/06 13:20:19;;;;;;;2.85;0.20;;;;;;;15.33;19.21;100503.53;4999475;28;20041;-64
2021/05/06 13:23:08;;;;;;;2.00;0.10;;;;;;;15.36;19.28;100500.69;5003404;28;20042;-63
2021/05/06 13:25:49;;;;;;;3.33;0.25;;;;;;;12.73;21.80;100504.25;4999357;28;20564;-63
2021/05/06 13:28:17;;;;;;;3.72;0.70;;;;;;;12.08;23.49;100507.69;4982068;28;20092;-64
2021/05/06 13:30:44;;;;;;;3.33;0.13;;;;;;;11.61;24.33;100510.94;4999067;28;20536;-63
2021/05/06 13:33:13;;;;;;;3.80;0.20;;;;;;;11.52;24.81;100511.38;5000486;28;20632;-64
2021/05/06 13:35:39;;;;;;;6.43;0.20;;;;;;;10.82;24.20;100516.50;5001418;28;20417;-64
2021/05/06 13:38:04;;;;;;;2.13;0.20;;;;;;;11.73;23.64;100515.56;4997959;28;20030;-63
2021/05/06 13:40:30;;;;;;;0.70;0.20;;;;;;;11.75;23.52;100513.69;4984607;28;20112;-63
2021/05/06 13:42:55;;;;;;;3.88;0.20;;;;;;;11.68;24.28;100512.31;5003139;28;20498;-64
2021/05/06 13:45:21;;;;;;;1.80;0.50;;;;;;;10.45;26.08;100515.53;5001406;28;20111;-62
2021/05/06 13:47:48;;;;;;;2.53;0.10;;;;;;;10.92;25.33;100511.66;4999011;28;20112;-63
2021/05/06 13:50:17;;;;;;;3.28;0.17;;;;;;;10.94;25.99;100515.91;4981394;28;20030;-63
2021/05/06 13:52:44;;;;;;;0.77;0.10;;;;;;;10.88;25.67;100515.34;5002026;28;20571;-63
2021/05/06 13:55:10;;;;;;;3.45;0.40;;;;;;;10.87;26.09;100514.50;4998445;28;20637;-64
2021/05/06 13:57:37;;;;;;;3.22;0.20;;;;;;;9.92;26.12;100509.16;4999313;28;20080;-63
2021/05/06 14:00:04;;;;;;;1.55;0.13;;;;;;;9.61;27.29;100514.78;5000839;28;20038;-64
2021/05/06 14:02:37;;;;;;;2.67;0.20;;;;;;;9.48;28.93;100514.44;5001608;28;20033;-62
2021/05/06 14:05:03;;;;;;;2.15;0.10;;;;;;;9.25;29.64;100511.91;4983370;28;20030;-63
2021/05/06 14:07:28;;;;;;;0.75;0.15;;;;;;;11.52;27.79;100503.53;4999035;28;20443;-63
2021/05/06 14:09:55;;;;;;;3.45;0.20;;;;;;;11.16;27.90;100500.03;5001642;28;20058;-62
2021/05/06 14:12:20;;;;;;;1.27;0.20;;;;;;;11.31;27.84;100502.81;4999270;28;20040;-63
2021/05/06 14:14:46;;;;;;;3.40;0.20;;;;;;;10.79;28.67;100506.13;5003218;28;20037;-63
2021/05/06 14:17:11;;;;;;;1.33;0.38;;;;;;;10.58;28.66;100503.59;5001481;28;20038;-63
2021/05/06 14:19:37;;;;;;;1.25;0.10;;;;;;;11.00;27.96;100509.53;4999295;28;20038;-64
2021/05/06 14:22:03;;;;;;;1.40;0.30;;;;;;;10.42;29.02;100502.59;5006421;28;20038;-64
2021/05/06 14:24:29;;;;;;;4.03;0.32;;;;;;;10.32;29.87;100512.59;4985953;28;20041;-62
2021/05/06 14:26:54;;;;;;;1.30;0.10;;;;;;;10.42;28.85;100500.00;4988037;28;20030;-63
2021/05/06 14:29:20;;;;;;;2.80;0.10;;;;;;;10.42;28.68;100502.59;4984249;28;20025;-63
2021/05/06 14:31:46;;;;;;;1.85;0.38;;;;;;;10.90;29.42;100503.88;4982987;28;20044;-64
2021/05/06 14:34:12;;;;;;;1.35;0.00;;;;;;;11.87;26.90;100494.78;4999302;28;20056;-64
2021/05/06 14:36:38;;;;;;;2.33;0.10;;;;;;;12.10;27.64;100492.72;4999467;28;20037;-62
2021/05/06 14:39:05;;;;;;;2.90;0.32;;;;;;;13.33;26.63;100493.88;4997245;28;20147;-63
2021/05/06 14:41:30;;;;;;;0.55;0.10;;;;;;;12.67;25.62;100485.28;4999669;28;20040;-64
2021/05/06 14:43:57;;;;;;;3.60;0.30;;;;;;;12.74;25.46;100477.13;4988151;28;20033;-64
2021/05/06 14:46:23;;;;;;;4.68;0.25;;;;;;;11.65;26.67;100478.44;5000957;28;20169;-64
2021/05/06 14:48:49;;;;;;;5.28;0.30;;;;;;;12.14;26.58;100482.94;4983720;28;20058;-63
2021/05/06 14:51:15;;;;;;;2.03;0.20;;;;;;;11.63;28.74;100480.28;4999959;28;20033;-65
2021/05/06 14:53:42;;;;;;;1.17;0.32;;;;;;;12.07;27.08;100485.03;4988846;28;20489;-61
2021/05/06 14:56:07;;;;;;;4.20;0.22;;;;;;;11.87;27.31;100483.47;4979814;28;20049;-63